sensor_id;sensor_type;location;lat;lon;timestamp;P1;durP1;ratioP1;P2;durP2;ratioP2
52456;SDS011;38369;52.840;7.082;2023-06-26T00:01:19;15.43;;;12.85;;
52456;SDS011;38369;52.840;7.082;2023-06-26T00:03:46;16.38;;;13.98;;
52456;SDS011;38369;52.840;7.082;2023-06-26T00:06:12;14.40;;;12.90;;
52456;SDS011;38369;52.840;7.082;2023-06-26T00:08:38;14.77;;;13.30;;
52456;SDS011;38369;52.840;7.082;2023-06-26T00:11:04;14.07;;;12.55;;
52456;SDS011;38369;52.840;7.082;2023-06-26T00:13:31;15.15;;;13.07;;
52456;SDS011;38369;52.840;7.082;2023-06-26T00:15:57;14.35;;;12.88;;
52456;SDS011;38369;52.840;7.082;2023-06-26T00:18:23;13.80;;;12.38;;
52456;SDS011;38369;52.840;7.082;2023-06-26T00:20:49;14.50;;;12.98;;
52456;SDS011;38369;52.840;7.082;2023-06-26T00:23:18;16.67;;;12.90;;
52456;SDS011;38369;52.840;7.082;2023-06-26T00:25:44;13.85;;;12.45;;
52456;SDS011;38369;52.840;7.082;2023-06-26T00:28:10;14.05;;;12.60;;
52456;SDS011;38369;52.840;7.082;2023-06-26T00:30:36;14.40;;;12.95;;
52456;SDS011;38369;52.840;7.082;2023-06-26T00:33:02;15.05;;;13.55;;
52456;SDS011;38369;52.840;7.082;2023-06-26T00:35:28;15.25;;;13.25;;
52456;SDS011;38369;52.840;7.082;2023-06-26T00:37:54;14.35;;;12.85;;
52456;SDS011;38369;52.840;7.082;2023-06-26T00:40:21;15.80;;;14.18;;
52456;SDS011;38369;52.840;7.082;2023-06-26T00:42:47;14.13;;;12.73;;
52456;SDS011;38369;52.840;7.082;2023-06-26T00:45:13;13.85;;;12.60;;
52456;SDS011;38369;52.840;7.082;2023-06-26T00:47:39;15.70;;;14.07;;
52456;SDS011;38369;52.840;7.082;2023-06-26T00:50:05;15.93;;;14.32;;
52456;SDS011;38369;52.840;7.082;2023-06-26T00:52:31;15.77;;;14.27;;
52456;SDS011;38369;52.840;7.082;2023-06-26T00:54:58;16.50;;;14.65;;
52456;SDS011;38369;52.840;7.082;2023-06-26T00:57:24;15.73;;;14.25;;
52456;SDS011;38369;52.840;7.082;2023-06-26T00:59:50;15.15;;;13.70;;
52456;SDS011;38369;52.840;7.082;2023-06-26T01:02:16;18.00;;;14.93;;
52456;SDS011;38369;52.840;7.082;2023-06-26T01:04:46;16.30;;;14.63;;
52456;SDS011;38369;52.840;7.082;2023-06-26T01:07:13;16.33;;;14.70;;
52456;SDS011;38369;52.840;7.082;2023-06-26T01:09:40;17.65;;;15.77;;
52456;SDS011;38369;52.840;7.082;2023-06-26T01:12:06;16.23;;;14.55;;
52456;SDS011;38369;52.840;7.082;2023-06-26T01:14:33;17.00;;;15.25;;
52456;SDS011;38369;52.840;7.082;2023-06-26T01:17:01;16.13;;;14.52;;
52456;SDS011;38369;52.840;7.082;2023-06-26T01:19:28;17.10;;;15.27;;
52456;SDS011;38369;52.840;7.082;2023-06-26T01:21:57;16.45;;;14.90;;
52456;SDS011;38369;52.840;7.082;2023-06-26T01:24:27;16.65;;;14.93;;
52456;SDS011;38369;52.840;7.082;2023-06-26T01:26:57;18.70;;;15.68;;
52456;SDS011;38369;52.840;7.082;2023-06-26T01:29:25;17.27;;;15.50;;
52456;SDS011;38369;52.840;7.082;2023-06-26T01:31:51;17.27;;;15.48;;
52456;SDS011;38369;52.840;7.082;2023-06-26T01:34:17;19.88;;;16.48;;
52456;SDS011;38369;52.840;7.082;2023-06-26T01:36:44;17.08;;;15.45;;
52456;SDS011;38369;52.840;7.082;2023-06-26T01:39:13;16.55;;;15.05;;
52456;SDS011;38369;52.840;7.082;2023-06-26T01:41:39;16.58;;;14.85;;
52456;SDS011;38369;52.840;7.082;2023-06-26T01:49:12;17.80;;;16.00;;
52456;SDS011;38369;52.840;7.082;2023-06-26T01:51:47;17.23;;;15.63;;
52456;SDS011;38369;52.840;7.082;2023-06-26T01:54:17;17.50;;;15.70;;
52456;SDS011;38369;52.840;7.082;2023-06-26T01:56:45;16.95;;;15.25;;
52456;SDS011;38369;52.840;7.082;2023-06-26T01:59:11;15.90;;;14.20;;
52456;SDS011;38369;52.840;7.082;2023-06-26T02:04:07;15.90;;;14.35;;
52456;SDS011;38369;52.840;7.082;2023-06-26T02:06:33;18.33;;;14.75;;
52456;SDS011;38369;52.840;7.082;2023-06-26T02:08:59;17.40;;;15.63;;
52456;SDS011;38369;52.840;7.082;2023-06-26T02:11:25;17.55;;;15.75;;
52456;SDS011;38369;52.840;7.082;2023-06-26T02:13:51;16.58;;;14.90;;
52456;SDS011;38369;52.840;7.082;2023-06-26T02:16:17;16.17;;;14.38;;
52456;SDS011;38369;52.840;7.082;2023-06-26T02:18:44;15.65;;;13.88;;
52456;SDS011;38369;52.840;7.082;2023-06-26T02:21:10;14.70;;;13.40;;
52456;SDS011;38369;52.840;7.082;2023-06-26T02:23:36;14.30;;;12.75;;
52456;SDS011;38369;52.840;7.082;2023-06-26T02:26:03;16.15;;;13.95;;
52456;SDS011;38369;52.840;7.082;2023-06-26T02:28:29;14.57;;;13.07;;
52456;SDS011;38369;52.840;7.082;2023-06-26T02:30:56;15.43;;;13.88;;
52456;SDS011;38369;52.840;7.082;2023-06-26T02:33:22;15.27;;;13.57;;
52456;SDS011;38369;52.840;7.082;2023-06-26T02:35:48;15.70;;;14.07;;
52456;SDS011;38369;52.840;7.082;2023-06-26T02:38:15;15.50;;;14.00;;
52456;SDS011;38369;52.840;7.082;2023-06-26T02:40:41;15.90;;;14.27;;
52456;SDS011;38369;52.840;7.082;2023-06-26T02:43:07;15.80;;;14.15;;
52456;SDS011;38369;52.840;7.082;2023-06-26T02:45:33;14.95;;;13.23;;
52456;SDS011;38369;52.840;7.082;2023-06-26T02:47:59;16.27;;;14.60;;
52456;SDS011;38369;52.840;7.082;2023-06-26T02:50:25;15.75;;;14.15;;
52456;SDS011;38369;52.840;7.082;2023-06-26T02:52:51;16.83;;;15.10;;
52456;SDS011;38369;52.840;7.082;2023-06-26T02:55:20;14.45;;;12.95;;
52456;SDS011;38369;52.840;7.082;2023-06-26T02:57:46;14.70;;;13.25;;
52456;SDS011;38369;52.840;7.082;2023-06-26T03:00:13;14.10;;;12.52;;
52456;SDS011;38369;52.840;7.082;2023-06-26T03:02:39;14.40;;;13.00;;
52456;SDS011;38369;52.840;7.082;2023-06-26T03:05:05;15.57;;;13.40;;
52456;SDS011;38369;52.840;7.082;2023-06-26T03:07:31;16.65;;;14.88;;
52456;SDS011;38369;52.840;7.082;2023-06-26T03:09:57;15.35;;;13.85;;
52456;SDS011;38369;52.840;7.082;2023-06-26T03:12:24;16.80;;;14.55;;
52456;SDS011;38369;52.840;7.082;2023-06-26T03:14:50;15.63;;;13.73;;
52456;SDS011;38369;52.840;7.082;2023-06-26T03:17:16;16.15;;;14.02;;
52456;SDS011;38369;52.840;7.082;2023-06-26T03:19:43;17.50;;;15.65;;
52456;SDS011;38369;52.840;7.082;2023-06-26T03:22:10;17.83;;;15.68;;
52456;SDS011;38369;52.840;7.082;2023-06-26T03:24:36;18.33;;;16.50;;
52456;SDS011;38369;52.840;7.082;2023-06-26T03:27:02;17.80;;;16.00;;
52456;SDS011;38369;52.840;7.082;2023-06-26T03:29:28;18.00;;;15.43;;
52456;SDS011;38369;52.840;7.082;2023-06-26T03:31:55;18.58;;;14.85;;
52456;SDS011;38369;52.840;7.082;2023-06-26T03:34:21;17.70;;;15.85;;
52456;SDS011;38369;52.840;7.082;2023-06-26T03:36:47;17.23;;;15.43;;
52456;SDS011;38369;52.840;7.082;2023-06-26T03:39:13;17.45;;;15.73;;
52456;SDS011;38369;52.840;7.082;2023-06-26T03:41:39;17.33;;;15.63;;
52456;SDS011;38369;52.840;7.082;2023-06-26T03:44:05;16.52;;;14.82;;
52456;SDS011;38369;52.840;7.082;2023-06-26T03:46:31;17.70;;;15.65;;
52456;SDS011;38369;52.840;7.082;2023-06-26T03:48:57;17.63;;;15.90;;
52456;SDS011;38369;52.840;7.082;2023-06-26T03:51:24;19.83;;;16.63;;
52456;SDS011;38369;52.840;7.082;2023-06-26T03:53:50;17.48;;;15.70;;
52456;SDS011;38369;52.840;7.082;2023-06-26T03:56:16;19.38;;;16.92;;
52456;SDS011;38369;52.840;7.082;2023-06-26T03:58:42;18.42;;;16.63;;
52456;SDS011;38369;52.840;7.082;2023-06-26T04:01:08;21.25;;;17.05;;
52456;SDS011;38369;52.840;7.082;2023-06-26T04:03:34;21.50;;;17.05;;
52456;SDS011;38369;52.840;7.082;2023-06-26T04:06:00;19.08;;;16.98;;
52456;SDS011;38369;52.840;7.082;2023-06-26T04:08:26;19.27;;;17.27;;
52456;SDS011;38369;52.840;7.082;2023-06-26T04:10:53;19.45;;;17.52;;
52456;SDS011;38369;52.840;7.082;2023-06-26T04:13:20;19.48;;;17.67;;
52456;SDS011;38369;52.840;7.082;2023-06-26T04:15:46;22.95;;;18.83;;
52456;SDS011;38369;52.840;7.082;2023-06-26T04:18:12;22.90;;;18.52;;
52456;SDS011;38369;52.840;7.082;2023-06-26T04:20:39;23.55;;;19.95;;
52456;SDS011;38369;52.840;7.082;2023-06-26T04:23:05;21.73;;;19.42;;
52456;SDS011;38369;52.840;7.082;2023-06-26T04:25:31;20.50;;;17.98;;
52456;SDS011;38369;52.840;7.082;2023-06-26T04:27:57;20.05;;;17.95;;
52456;SDS011;38369;52.840;7.082;2023-06-26T04:30:23;18.35;;;16.65;;
52456;SDS011;38369;52.840;7.082;2023-06-26T04:32:49;20.17;;;18.15;;
52456;SDS011;38369;52.840;7.082;2023-06-26T04:35:15;21.50;;;17.40;;
52456;SDS011;38369;52.840;7.082;2023-06-26T04:37:41;23.77;;;18.50;;
52456;SDS011;38369;52.840;7.082;2023-06-26T04:40:08;18.45;;;16.65;;
52456;SDS011;38369;52.840;7.082;2023-06-26T04:42:34;19.98;;;17.88;;
52456;SDS011;38369;52.840;7.082;2023-06-26T04:45:00;19.85;;;18.05;;
52456;SDS011;38369;52.840;7.082;2023-06-26T04:47:28;19.05;;;17.05;;
52456;SDS011;38369;52.840;7.082;2023-06-26T04:49:54;19.75;;;17.75;;
52456;SDS011;38369;52.840;7.082;2023-06-26T04:52:20;21.17;;;19.17;;
52456;SDS011;38369;52.840;7.082;2023-06-26T04:54:46;19.65;;;17.45;;
52456;SDS011;38369;52.840;7.082;2023-06-26T04:57:12;19.35;;;17.17;;
52456;SDS011;38369;52.840;7.082;2023-06-26T04:59:39;22.92;;;20.48;;
52456;SDS011;38369;52.840;7.082;2023-06-26T05:02:05;20.70;;;18.55;;
52456;SDS011;38369;52.840;7.082;2023-06-26T05:04:32;21.05;;;18.85;;
52456;SDS011;38369;52.840;7.082;2023-06-26T05:06:58;20.02;;;18.13;;
52456;SDS011;38369;52.840;7.082;2023-06-26T05:09:24;19.23;;;17.25;;
52456;SDS011;38369;52.840;7.082;2023-06-26T05:11:50;17.77;;;16.08;;
52456;SDS011;38369;52.840;7.082;2023-06-26T05:14:16;16.92;;;15.32;;
52456;SDS011;38369;52.840;7.082;2023-06-26T05:16:42;16.52;;;14.98;;
52456;SDS011;38369;52.840;7.082;2023-06-26T05:19:08;17.55;;;14.15;;
52456;SDS011;38369;52.840;7.082;2023-06-26T05:21:34;15.77;;;14.18;;
52456;SDS011;38369;52.840;7.082;2023-06-26T05:24:00;15.05;;;13.00;;
52456;SDS011;38369;52.840;7.082;2023-06-26T05:26:28;19.33;;;12.25;;
52456;SDS011;38369;52.840;7.082;2023-06-26T05:28:54;17.13;;;12.88;;
52456;SDS011;38369;52.840;7.082;2023-06-26T05:31:21;17.08;;;13.48;;
52456;SDS011;38369;52.840;7.082;2023-06-26T05:33:47;14.80;;;13.20;;
52456;SDS011;38369;52.840;7.082;2023-06-26T05:36:14;17.75;;;13.93;;
52456;SDS011;38369;52.840;7.082;2023-06-26T05:38:42;16.35;;;14.25;;
52456;SDS011;38369;52.840;7.082;2023-06-26T05:41:08;17.52;;;14.13;;
52456;SDS011;38369;52.840;7.082;2023-06-26T05:43:34;19.27;;;13.02;;
52456;SDS011;38369;52.840;7.082;2023-06-26T05:46:00;13.52;;;11.77;;
52456;SDS011;38369;52.840;7.082;2023-06-26T05:48:26;17.17;;;12.98;;
52456;SDS011;38369;52.840;7.082;2023-06-26T05:50:53;16.42;;;14.05;;
52456;SDS011;38369;52.840;7.082;2023-06-26T05:53:19;13.80;;;11.95;;
52456;SDS011;38369;52.840;7.082;2023-06-26T05:55:45;14.38;;;11.38;;
52456;SDS011;38369;52.840;7.082;2023-06-26T05:58:11;16.92;;;10.93;;
52456;SDS011;38369;52.840;7.082;2023-06-26T06:00:39;16.40;;;12.25;;
52456;SDS011;38369;52.840;7.082;2023-06-26T06:03:06;15.52;;;11.18;;
52456;SDS011;38369;52.840;7.082;2023-06-26T06:05:32;16.80;;;9.57;;
52456;SDS011;38369;52.840;7.082;2023-06-26T06:07:58;27.30;;;10.38;;
52456;SDS011;38369;52.840;7.082;2023-06-26T06:10:24;14.93;;;8.55;;
52456;SDS011;38369;52.840;7.082;2023-06-26T06:12:50;17.30;;;9.38;;
52456;SDS011;38369;52.840;7.082;2023-06-26T06:15:17;14.05;;;8.77;;
52456;SDS011;38369;52.840;7.082;2023-06-26T06:17:43;18.63;;;9.00;;
52456;SDS011;38369;52.840;7.082;2023-06-26T06:20:09;16.13;;;9.23;;
52456;SDS011;38369;52.840;7.082;2023-06-26T06:22:35;28.55;;;8.90;;
52456;SDS011;38369;52.840;7.082;2023-06-26T06:25:01;14.13;;;9.13;;
52456;SDS011;38369;52.840;7.082;2023-06-26T06:27:27;15.93;;;9.27;;
52456;SDS011;38369;52.840;7.082;2023-06-26T06:29:53;19.00;;;9.55;;
52456;SDS011;38369;52.840;7.082;2023-06-26T06:32:19;12.30;;;8.40;;
52456;SDS011;38369;52.840;7.082;2023-06-26T06:34:46;12.82;;;8.75;;
52456;SDS011;38369;52.840;7.082;2023-06-26T06:37:12;15.45;;;7.90;;
52456;SDS011;38369;52.840;7.082;2023-06-26T06:39:38;12.00;;;7.40;;
52456;SDS011;38369;52.840;7.082;2023-06-26T06:42:04;12.27;;;6.90;;
52456;SDS011;38369;52.840;7.082;2023-06-26T06:44:30;11.75;;;6.88;;
52456;SDS011;38369;52.840;7.082;2023-06-26T06:46:56;13.40;;;7.97;;
52456;SDS011;38369;52.840;7.082;2023-06-26T06:49:22;13.10;;;7.15;;
52456;SDS011;38369;52.840;7.082;2023-06-26T06:51:48;13.60;;;7.18;;
52456;SDS011;38369;52.840;7.082;2023-06-26T06:54:17;11.43;;;7.00;;
52456;SDS011;38369;52.840;7.082;2023-06-26T06:56:44;15.50;;;7.20;;
52456;SDS011;38369;52.840;7.082;2023-06-26T06:59:10;12.85;;;7.32;;
52456;SDS011;38369;52.840;7.082;2023-06-26T07:01:36;12.55;;;6.75;;
52456;SDS011;38369;52.840;7.082;2023-06-26T07:04:03;9.48;;;5.85;;
52456;SDS011;38369;52.840;7.082;2023-06-26T07:06:29;10.32;;;5.55;;
52456;SDS011;38369;52.840;7.082;2023-06-26T07:08:55;10.90;;;5.32;;
52456;SDS011;38369;52.840;7.082;2023-06-26T07:11:21;8.80;;;5.07;;
52456;SDS011;38369;52.840;7.082;2023-06-26T07:13:47;12.27;;;4.90;;
52456;SDS011;38369;52.840;7.082;2023-06-26T07:16:13;10.52;;;4.68;;
52456;SDS011;38369;52.840;7.082;2023-06-26T07:18:40;6.63;;;4.55;;
52456;SDS011;38369;52.840;7.082;2023-06-26T07:21:06;10.77;;;5.00;;
52456;SDS011;38369;52.840;7.082;2023-06-26T07:23:33;6.78;;;3.83;;
52456;SDS011;38369;52.840;7.082;2023-06-26T07:25:59;9.10;;;4.18;;
52456;SDS011;38369;52.840;7.082;2023-06-26T07:28:25;6.35;;;3.30;;
52456;SDS011;38369;52.840;7.082;2023-06-26T07:30:51;9.68;;;3.75;;
52456;SDS011;38369;52.840;7.082;2023-06-26T07:33:17;8.50;;;3.00;;
52456;SDS011;38369;52.840;7.082;2023-06-26T07:35:43;8.82;;;3.22;;
52456;SDS011;38369;52.840;7.082;2023-06-26T07:38:09;6.93;;;3.40;;
52456;SDS011;38369;52.840;7.082;2023-06-26T07:40:35;4.88;;;2.38;;
52456;SDS011;38369;52.840;7.082;2023-06-26T07:43:02;7.72;;;3.35;;
52456;SDS011;38369;52.840;7.082;2023-06-26T07:45:28;5.80;;;2.75;;
52456;SDS011;38369;52.840;7.082;2023-06-26T07:47:54;6.50;;;2.92;;
52456;SDS011;38369;52.840;7.082;2023-06-26T07:50:20;7.40;;;2.72;;
52456;SDS011;38369;52.840;7.082;2023-06-26T07:52:48;6.95;;;2.72;;
52456;SDS011;38369;52.840;7.082;2023-06-26T07:55:14;7.35;;;2.20;;
52456;SDS011;38369;52.840;7.082;2023-06-26T07:57:40;3.85;;;1.70;;
52456;SDS011;38369;52.840;7.082;2023-06-26T08:00:06;3.08;;;1.63;;
52456;SDS011;38369;52.840;7.082;2023-06-26T08:02:32;4.95;;;2.00;;
52456;SDS011;38369;52.840;7.082;2023-06-26T08:04:58;5.05;;;2.75;;
52456;SDS011;38369;52.840;7.082;2023-06-26T08:07:24;3.08;;;1.88;;
52456;SDS011;38369;52.840;7.082;2023-06-26T08:09:50;4.78;;;2.20;;
52456;SDS011;38369;52.840;7.082;2023-06-26T08:12:16;4.97;;;2.08;;
52456;SDS011;38369;52.840;7.082;2023-06-26T08:14:42;4.30;;;2.17;;
52456;SDS011;38369;52.840;7.082;2023-06-26T08:17:08;7.97;;;2.42;;
52456;SDS011;38369;52.840;7.082;2023-06-26T08:19:35;3.78;;;1.63;;
52456;SDS011;38369;52.840;7.082;2023-06-26T08:22:01;4.90;;;2.17;;
52456;SDS011;38369;52.840;7.082;2023-06-26T08:24:27;3.63;;;1.58;;
52456;SDS011;38369;52.840;7.082;2023-06-26T08:26:53;3.42;;;1.77;;
52456;SDS011;38369;52.840;7.082;2023-06-26T08:29:19;5.53;;;2.38;;
52456;SDS011;38369;52.840;7.082;2023-06-26T08:31:45;6.50;;;2.22;;
52456;SDS011;38369;52.840;7.082;2023-06-26T08:34:11;5.88;;;1.75;;
52456;SDS011;38369;52.840;7.082;2023-06-26T08:36:37;7.20;;;1.80;;
52456;SDS011;38369;52.840;7.082;2023-06-26T08:39:04;5.93;;;2.00;;
52456;SDS011;38369;52.840;7.082;2023-06-26T08:41:30;6.57;;;2.35;;
52456;SDS011;38369;52.840;7.082;2023-06-26T08:43:57;2.58;;;1.50;;
52456;SDS011;38369;52.840;7.082;2023-06-26T08:46:23;3.00;;;1.70;;
52456;SDS011;38369;52.840;7.082;2023-06-26T08:48:52;5.00;;;1.90;;
52456;SDS011;38369;52.840;7.082;2023-06-26T08:51:21;6.57;;;2.17;;
52456;SDS011;38369;52.840;7.082;2023-06-26T08:56:14;7.10;;;2.40;;
52456;SDS011;38369;52.840;7.082;2023-06-26T08:58:41;4.82;;;2.17;;
52456;SDS011;38369;52.840;7.082;2023-06-26T09:01:07;8.23;;;1.90;;
52456;SDS011;38369;52.840;7.082;2023-06-26T09:03:33;6.15;;;2.60;;
52456;SDS011;38369;52.840;7.082;2023-06-26T09:05:59;6.30;;;2.03;;
52456;SDS011;38369;52.840;7.082;2023-06-26T09:08:26;3.83;;;1.70;;
52456;SDS011;38369;52.840;7.082;2023-06-26T09:10:52;5.35;;;1.85;;
52456;SDS011;38369;52.840;7.082;2023-06-26T09:13:18;5.85;;;2.05;;
52456;SDS011;38369;52.840;7.082;2023-06-26T09:15:45;3.38;;;1.50;;
52456;SDS011;38369;52.840;7.082;2023-06-26T09:18:13;5.90;;;1.50;;
52456;SDS011;38369;52.840;7.082;2023-06-26T09:20:39;4.45;;;1.70;;
52456;SDS011;38369;52.840;7.082;2023-06-26T09:23:05;4.70;;;1.75;;
52456;SDS011;38369;52.840;7.082;2023-06-26T09:25:31;4.20;;;1.60;;
52456;SDS011;38369;52.840;7.082;2023-06-26T09:27:57;5.60;;;1.90;;
52456;SDS011;38369;52.840;7.082;2023-06-26T09:30:24;7.35;;;2.13;;
52456;SDS011;38369;52.840;7.082;2023-06-26T09:32:51;6.80;;;1.83;;
52456;SDS011;38369;52.840;7.082;2023-06-26T09:35:19;3.15;;;1.63;;
52456;SDS011;38369;52.840;7.082;2023-06-26T09:37:45;2.63;;;1.60;;
52456;SDS011;38369;52.840;7.082;2023-06-26T09:40:13;3.25;;;1.92;;
52456;SDS011;38369;52.840;7.082;2023-06-26T09:42:39;4.40;;;1.90;;
52456;SDS011;38369;52.840;7.082;2023-06-26T09:45:05;2.85;;;1.65;;
52456;SDS011;38369;52.840;7.082;2023-06-26T09:47:32;4.18;;;1.95;;
52456;SDS011;38369;52.840;7.082;2023-06-26T09:49:59;3.28;;;1.60;;
52456;SDS011;38369;52.840;7.082;2023-06-26T09:52:26;2.90;;;1.95;;
52456;SDS011;38369;52.840;7.082;2023-06-26T09:55:14;6.00;;;1.35;;
52456;SDS011;38369;52.840;7.082;2023-06-26T09:57:39;3.97;;;1.90;;
52456;SDS011;38369;52.840;7.082;2023-06-26T10:00:06;5.70;;;1.90;;
52456;SDS011;38369;52.840;7.082;2023-06-26T10:02:34;5.63;;;1.90;;
52456;SDS011;38369;52.840;7.082;2023-06-26T10:05:00;3.65;;;1.52;;
52456;SDS011;38369;52.840;7.082;2023-06-26T10:07:26;4.68;;;2.08;;
52456;SDS011;38369;52.840;7.082;2023-06-26T10:09:52;6.63;;;2.10;;
52456;SDS011;38369;52.840;7.082;2023-06-26T10:12:32;4.07;;;2.10;;
52456;SDS011;38369;52.840;7.082;2023-06-26T10:15:00;5.72;;;2.38;;
52456;SDS011;38369;52.840;7.082;2023-06-26T10:17:30;4.60;;;1.92;;
52456;SDS011;38369;52.840;7.082;2023-06-26T10:19:56;5.43;;;2.65;;
52456;SDS011;38369;52.840;7.082;2023-06-26T10:22:25;5.93;;;2.20;;
52456;SDS011;38369;52.840;7.082;2023-06-26T10:24:53;7.28;;;2.38;;
52456;SDS011;38369;52.840;7.082;2023-06-26T10:27:21;3.00;;;1.85;;
52456;SDS011;38369;52.840;7.082;2023-06-26T10:29:53;15.68;;;7.70;;
52456;SDS011;38369;52.840;7.082;2023-06-26T10:32:20;7.63;;;1.90;;
52456;SDS011;38369;52.840;7.082;2023-06-26T10:34:47;4.78;;;2.20;;
52456;SDS011;38369;52.840;7.082;2023-06-26T10:37:13;5.32;;;2.10;;
52456;SDS011;38369;52.840;7.082;2023-06-26T10:39:46;3.95;;;2.55;;
52456;SDS011;38369;52.840;7.082;2023-06-26T10:42:15;5.85;;;2.33;;
52456;SDS011;38369;52.840;7.082;2023-06-26T10:44:45;5.22;;;2.05;;
52456;SDS011;38369;52.840;7.082;2023-06-26T10:47:12;5.45;;;1.77;;
52456;SDS011;38369;52.840;7.082;2023-06-26T10:49:38;3.55;;;1.55;;
52456;SDS011;38369;52.840;7.082;2023-06-26T10:52:05;3.05;;;1.73;;
52456;SDS011;38369;52.840;7.082;2023-06-26T10:54:31;5.00;;;1.67;;
52456;SDS011;38369;52.840;7.082;2023-06-26T10:56:58;4.38;;;1.65;;
52456;SDS011;38369;52.840;7.082;2023-06-26T10:59:28;3.70;;;1.88;;
52456;SDS011;38369;52.840;7.082;2023-06-26T11:04:35;3.20;;;1.77;;
52456;SDS011;38369;52.840;7.082;2023-06-26T11:10:01;6.30;;;1.67;;
52456;SDS011;38369;52.840;7.082;2023-06-26T11:12:34;3.40;;;1.58;;
52456;SDS011;38369;52.840;7.082;2023-06-26T11:15:01;2.92;;;1.30;;
52456;SDS011;38369;52.840;7.082;2023-06-26T11:17:27;5.82;;;1.60;;
52456;SDS011;38369;52.840;7.082;2023-06-26T11:19:54;4.80;;;2.08;;
52456;SDS011;38369;52.840;7.082;2023-06-26T11:22:21;3.65;;;1.45;;
52456;SDS011;38369;52.840;7.082;2023-06-26T11:24:47;2.45;;;1.35;;
52456;SDS011;38369;52.840;7.082;2023-06-26T11:27:14;5.50;;;1.63;;
52456;SDS011;38369;52.840;7.082;2023-06-26T11:29:41;5.93;;;1.88;;
52456;SDS011;38369;52.840;7.082;2023-06-26T11:32:13;5.03;;;1.60;;
52456;SDS011;38369;52.840;7.082;2023-06-26T11:34:39;4.60;;;1.60;;
52456;SDS011;38369;52.840;7.082;2023-06-26T11:37:07;3.75;;;1.73;;
52456;SDS011;38369;52.840;7.082;2023-06-26T11:39:34;3.72;;;1.85;;
52456;SDS011;38369;52.840;7.082;2023-06-26T11:42:00;5.72;;;2.28;;
52456;SDS011;38369;52.840;7.082;2023-06-26T11:44:30;4.93;;;1.85;;
52456;SDS011;38369;52.840;7.082;2023-06-26T11:46:57;6.05;;;1.83;;
52456;SDS011;38369;52.840;7.082;2023-06-26T11:49:23;5.00;;;1.70;;
52456;SDS011;38369;52.840;7.082;2023-06-26T11:51:51;3.38;;;1.52;;
52456;SDS011;38369;52.840;7.082;2023-06-26T11:54:23;3.97;;;1.67;;
52456;SDS011;38369;52.840;7.082;2023-06-26T11:56:57;4.53;;;1.88;;
52456;SDS011;38369;52.840;7.082;2023-06-26T11:59:23;3.53;;;1.85;;
52456;SDS011;38369;52.840;7.082;2023-06-26T12:01:50;3.05;;;1.52;;
52456;SDS011;38369;52.840;7.082;2023-06-26T12:04:17;4.90;;;1.42;;
52456;SDS011;38369;52.840;7.082;2023-06-26T12:06:49;6.57;;;2.28;;
52456;SDS011;38369;52.840;7.082;2023-06-26T12:09:16;3.58;;;1.30;;
52456;SDS011;38369;52.840;7.082;2023-06-26T12:11:43;3.67;;;1.50;;
52456;SDS011;38369;52.840;7.082;2023-06-26T12:14:10;5.22;;;2.40;;
52456;SDS011;38369;52.840;7.082;2023-06-26T12:16:36;6.60;;;1.50;;
52456;SDS011;38369;52.840;7.082;2023-06-26T12:19:04;5.70;;;1.52;;
52456;SDS011;38369;52.840;7.082;2023-06-26T12:24:06;5.63;;;1.75;;
52456;SDS011;38369;52.840;7.082;2023-06-26T12:26:32;5.78;;;1.40;;
52456;SDS011;38369;52.840;7.082;2023-06-26T12:29:11;3.95;;;1.30;;
52456;SDS011;38369;52.840;7.082;2023-06-26T12:31:51;4.97;;;1.48;;
52456;SDS011;38369;52.840;7.082;2023-06-26T12:34:19;4.50;;;1.45;;
52456;SDS011;38369;52.840;7.082;2023-06-26T12:36:46;4.75;;;1.67;;
52456;SDS011;38369;52.840;7.082;2023-06-26T12:39:14;3.47;;;1.55;;
52456;SDS011;38369;52.840;7.082;2023-06-26T12:41:44;2.70;;;1.50;;
52456;SDS011;38369;52.840;7.082;2023-06-26T12:44:20;5.95;;;1.35;;
52456;SDS011;38369;52.840;7.082;2023-06-26T12:46:46;4.45;;;1.40;;
52456;SDS011;38369;52.840;7.082;2023-06-26T12:49:13;2.42;;;1.30;;
52456;SDS011;38369;52.840;7.082;2023-06-26T12:51:39;6.65;;;1.80;;
52456;SDS011;38369;52.840;7.082;2023-06-26T12:54:06;3.38;;;1.35;;
52456;SDS011;38369;52.840;7.082;2023-06-26T12:56:32;3.63;;;1.05;;
52456;SDS011;38369;52.840;7.082;2023-06-26T12:58:58;3.85;;;1.20;;
52456;SDS011;38369;52.840;7.082;2023-06-26T13:01:26;4.88;;;1.67;;
52456;SDS011;38369;52.840;7.082;2023-06-26T13:03:53;2.70;;;1.48;;
52456;SDS011;38369;52.840;7.082;2023-06-26T13:06:19;3.83;;;1.77;;
52456;SDS011;38369;52.840;7.082;2023-06-26T13:08:46;6.57;;;1.83;;
52456;SDS011;38369;52.840;7.082;2023-06-26T13:11:12;6.57;;;1.85;;
52456;SDS011;38369;52.840;7.082;2023-06-26T13:13:38;3.30;;;1.30;;
52456;SDS011;38369;52.840;7.082;2023-06-26T13:16:04;3.70;;;1.60;;
52456;SDS011;38369;52.840;7.082;2023-06-26T13:18:30;4.65;;;1.40;;
52456;SDS011;38369;52.840;7.082;2023-06-26T13:20:56;7.13;;;1.42;;
52456;SDS011;38369;52.840;7.082;2023-06-26T13:23:22;4.38;;;1.17;;
52456;SDS011;38369;52.840;7.082;2023-06-26T13:25:48;2.40;;;1.00;;
52456;SDS011;38369;52.840;7.082;2023-06-26T13:28:15;4.85;;;1.20;;
52456;SDS011;38369;52.840;7.082;2023-06-26T13:30:41;2.58;;;1.20;;
52456;SDS011;38369;52.840;7.082;2023-06-26T13:33:07;4.32;;;1.35;;
52456;SDS011;38369;52.840;7.082;2023-06-26T13:35:35;4.88;;;1.38;;
52456;SDS011;38369;52.840;7.082;2023-06-26T13:38:01;3.65;;;1.35;;
52456;SDS011;38369;52.840;7.082;2023-06-26T13:40:27;4.90;;;1.20;;
52456;SDS011;38369;52.840;7.082;2023-06-26T13:42:53;6.55;;;1.42;;
52456;SDS011;38369;52.840;7.082;2023-06-26T13:45:20;3.72;;;1.70;;
52456;SDS011;38369;52.840;7.082;2023-06-26T13:47:46;4.32;;;1.35;;
52456;SDS011;38369;52.840;7.082;2023-06-26T13:50:12;2.95;;;1.27;;
52456;SDS011;38369;52.840;7.082;2023-06-26T13:52:38;4.32;;;1.15;;
52456;SDS011;38369;52.840;7.082;2023-06-26T13:55:04;2.33;;;1.08;;
52456;SDS011;38369;52.840;7.082;2023-06-26T13:57:31;4.22;;;1.27;;
52456;SDS011;38369;52.840;7.082;2023-06-26T13:59:57;2.50;;;1.05;;
52456;SDS011;38369;52.840;7.082;2023-06-26T14:02:23;4.00;;;1.10;;
52456;SDS011;38369;52.840;7.082;2023-06-26T14:04:49;2.55;;;1.00;;
52456;SDS011;38369;52.840;7.082;2023-06-26T14:07:15;5.65;;;1.33;;
52456;SDS011;38369;52.840;7.082;2023-06-26T14:09:41;4.07;;;1.38;;
52456;SDS011;38369;52.840;7.082;2023-06-26T14:12:07;7.43;;;2.15;;
52456;SDS011;38369;52.840;7.082;2023-06-26T14:14:33;3.58;;;1.20;;
52456;SDS011;38369;52.840;7.082;2023-06-26T14:16:59;7.25;;;2.00;;
52456;SDS011;38369;52.840;7.082;2023-06-26T14:19:25;5.25;;;2.08;;
52456;SDS011;38369;52.840;7.082;2023-06-26T14:21:52;4.57;;;1.80;;
52456;SDS011;38369;52.840;7.082;2023-06-26T14:24:18;3.75;;;1.38;;
52456;SDS011;38369;52.840;7.082;2023-06-26T14:26:44;4.57;;;1.27;;
52456;SDS011;38369;52.840;7.082;2023-06-26T14:29:10;4.53;;;1.40;;
52456;SDS011;38369;52.840;7.082;2023-06-26T14:31:38;5.47;;;1.15;;
52456;SDS011;38369;52.840;7.082;2023-06-26T14:34:04;4.63;;;1.10;;
52456;SDS011;38369;52.840;7.082;2023-06-26T14:36:30;3.28;;;1.00;;
52456;SDS011;38369;52.840;7.082;2023-06-26T14:38:57;3.97;;;1.25;;
52456;SDS011;38369;52.840;7.082;2023-06-26T14:41:24;5.55;;;1.50;;
52456;SDS011;38369;52.840;7.082;2023-06-26T14:43:50;2.95;;;1.40;;
52456;SDS011;38369;52.840;7.082;2023-06-26T14:46:17;3.60;;;1.20;;
52456;SDS011;38369;52.840;7.082;2023-06-26T14:48:44;4.68;;;1.80;;
52456;SDS011;38369;52.840;7.082;2023-06-26T14:51:11;4.03;;;2.10;;